CST,Max TemperatureF,Mean TemperatureF,Min TemperatureF,Max Dew PointF,MeanDew PointF,Min DewpointF,Max Humidity, Mean Humidity, Min Humidity, Max Sea Level PressureIn, Mean Sea Level PressureIn, Min Sea Level PressureIn, Max VisibilityMiles, Mean VisibilityMiles, Min VisibilityMiles, Max Wind SpeedMPH, Mean Wind SpeedMPH, Max Gust SpeedMPH,PrecipitationIn, CloudCover, Events, WindDirDegrees
2012-1-1,67,56,44,58,48,29,90,63,36,30.34,30.16,30.10,10,10,10,23,12,32,0.00,5,,250
2012-1-2,49,40,30,27,13,5,61,41,21,30.40,30.33,30.24,10,10,10,29,13,40,0.00,0,,306
2012-1-3,38,31,23,18,10,6,74,52,29,30.57,30.47,30.40,10,10,10,18,7,22,0.00,0,,340
2012-1-4,54,38,22,33,23,10,82,52,21,30.44,30.33,30.24,10,10,10,16,5,21,0.00,0,,226
2012-1-5,61,46,31,41,33,29,96,64,32,30.29,30.22,30.16,10,9,5,9,1,13,0.00,0,,257
2012-1-6,69,50,31,52,41,29,100,70,39,30.20,30.12,30.05,10,10,9,14,4,20,0.00,1,,220
2012-1-7,70,62,53,57,54,49,93,74,55,30.13,30.09,30.05,10,10,7,16,6,23,0.04,6,Rain,226
2012-1-8,63,57,51,59,55,52,100,92,84,30.20,30.16,30.12,10,6,1,9,3,12,0.14,6,Rain,183
2012-1-9,68,61,54,59,58,55,100,87,73,30.21,30.13,30.07,10,9,3,14,3,17,0.00,6,,202
2012-1-10,61,58,55,59,57,55,100,95,90,30.09,29.96,29.73,10,6,2,15,5,21,0.31,7,Rain,121
2012-1-11,62,55,48,59,52,46,97,92,86,29.76,29.65,29.56,10,7,1,25,12,31,1.19,8,Rain-Thunderstorm,210
2012-1-12,51,40,29,47,39,14,93,71,49,30.09,29.81,29.72,10,8,6,32,13,45,T,7,Rain,253
2012-1-13,40,33,25,20,17,14,74,57,40,30.29,30.20,30.09,10,10,10,18,8,24,0.00,0,,265
2012-1-14,56,40,24,27,22,17,88,57,26,30.33,30.26,30.14,10,10,10,26,7,35,0.00,0,,233
2012-1-15,59,44,29,29,25,16,85,53,20,30.51,30.42,30.31,10,10,10,8,2,18,0.00,0,,243
2012-1-16,63,56,48,48,31,24,66,50,33,30.44,30.34,30.21,10,10,10,16,8,24,0.00,5,,153
2012-1-17,65,55,45,61,55,40,90,84,77,30.22,30.09,30.00,10,8,1,25,12,33,0.84,7,Rain-Thunderstorm,242
2012-1-18,47,39,30,36,28,24,85,65,45,30.28,30.20,30.15,10,10,10,18,6,24,0.00,1,,348
2012-1-19,60,45,29,47,28,21,92,58,23,30.18,30.10,30.03,10,10,9,16,5,22,0.00,3,,177
2012-1-20,67,61,55,63,56,48,100,84,67,30.04,29.98,29.92,10,8,1,23,8,32,0.21,8,Rain,182
2012-1-21,67,57,47,63,56,46,100,87,73,30.08,29.98,29.89,10,8,2,23,10,35,0.16,8,Rain-Thunderstorm,303
2012-1-22,66,57,48,62,54,46,100,94,87,30.10,30.04,29.90,10,5,1,20,6,28,T,8,,121
2012-1-23,71,68,65,64,53,29,87,59,31,30.11,29.94,29.78,10,8,1,31,13,43,0.67,4,Rain-Thunderstorm,234
2012-1-24,65,51,37,39,36,28,92,59,26,30.27,30.22,30.14,10,10,10,10,2,13,0.00,0,,357
2012-1-25,75,59,43,58,47,34,76,58,40,30.21,30.11,29.99,10,10,10,17,8,22,0.00,4,,120
2012-1-26,66,60,53,63,59,50,100,87,73,30.01,29.84,29.70,10,7,0,23,9,33,2.34,7,Fog-Rain-Thunderstorm,208
2012-1-27,56,48,39,50,40,37,93,72,51,30.10,30.00,29.81,10,10,10,22,7,28,T,4,,291
2012-1-28,59,46,33,41,32,21,92,62,32,30.37,30.24,30.09,10,10,8,18,6,23,0.00,0,,352
2012-1-29,57,41,25,28,22,13,85,52,18,30.49,30.42,30.38,10,10,10,13,2,16,0.00,0,,305
2012-1-30,64,47,30,29,23,16,85,51,16,30.46,30.39,30.35,10,10,10,13,3,25,0.00,0,,197
2012-1-31,65,53,41,52,36,23,71,51,30,30.37,30.30,30.24,10,10,10,16,5,21,0.00,3,,152